Lilydale, Minnesota
Current Conditions -  °F | °C
As of 1:53 AM on Thursday 27 Nov 2014 (Local Time) from KSTP Reporting Station
Clear Clear  
Wind Chill: -10°   Ceiling: Unl
Heat Index:   Visibility: 10mi
Dew Point: -2°   Wind: 14mph
Humidity: 67%   Direction: 330°NNW
Pressure: 30.46"   Gusts: NA
Location:  44.8976°N, 93.103°W
Report Text: KSTP 270753Z AUTO 33012KT 10SM CLR M14/M19 A3046 RMK AO2 SLP328 T11391189
Loading
Personal Weather Stations






























Interactive Weather Map New forecast layout! Learn more

10-Day Weather Forecast

Advertisements
Track Severe Weather on mobile